sensor_id;sensor_type;location;lat;lon;timestamp;P1;durP1;ratioP1;P2;durP2;ratioP2
28176;SDS011;15461;41.652;9.378;2023-04-24T00:00:54;13.57;;;4.88;;
28176;SDS011;15461;41.652;9.378;2023-04-24T00:03:24;13.73;;;4.72;;
28176;SDS011;15461;41.652;9.378;2023-04-24T00:05:51;17.05;;;4.88;;
28176;SDS011;15461;41.652;9.378;2023-04-24T00:08:17;17.30;;;4.85;;
28176;SDS011;15461;41.652;9.378;2023-04-24T00:10:43;22.80;;;5.70;;
28176;SDS011;15461;41.652;9.378;2023-04-24T00:13:09;20.80;;;5.55;;
28176;SDS011;15461;41.652;9.378;2023-04-24T00:15:35;18.60;;;5.50;;
28176;SDS011;15461;41.652;9.378;2023-04-24T00:18:01;22.50;;;5.72;;
28176;SDS011;15461;41.652;9.378;2023-04-24T00:20:27;16.17;;;5.07;;
28176;SDS011;15461;41.652;9.378;2023-04-24T00:23:02;16.70;;;5.18;;
28176;SDS011;15461;41.652;9.378;2023-04-24T00:25:28;18.75;;;4.82;;
28176;SDS011;15461;41.652;9.378;2023-04-24T00:27:54;18.02;;;5.45;;
28176;SDS011;15461;41.652;9.378;2023-04-24T00:30:20;17.58;;;5.13;;
28176;SDS011;15461;41.652;9.378;2023-04-24T00:32:46;21.75;;;5.55;;
28176;SDS011;15461;41.652;9.378;2023-04-24T00:35:13;22.33;;;5.50;;
28176;SDS011;15461;41.652;9.378;2023-04-24T00:37:39;17.75;;;5.00;;
28176;SDS011;15461;41.652;9.378;2023-04-24T00:40:05;12.88;;;4.60;;
28176;SDS011;15461;41.652;9.378;2023-04-24T00:42:32;20.42;;;5.10;;
28176;SDS011;15461;41.652;9.378;2023-04-24T00:44:58;13.25;;;5.35;;
28176;SDS011;15461;41.652;9.378;2023-04-24T00:47:26;15.98;;;4.45;;
28176;SDS011;15461;41.652;9.378;2023-04-24T00:49:53;14.80;;;4.82;;
28176;SDS011;15461;41.652;9.378;2023-04-24T00:52:20;16.27;;;4.97;;
28176;SDS011;15461;41.652;9.378;2023-04-24T00:54:49;17.77;;;4.55;;
28176;SDS011;15461;41.652;9.378;2023-04-24T00:57:15;21.10;;;5.65;;
28176;SDS011;15461;41.652;9.378;2023-04-24T00:59:42;18.58;;;5.05;;
28176;SDS011;15461;41.652;9.378;2023-04-24T01:02:09;16.55;;;5.45;;
28176;SDS011;15461;41.652;9.378;2023-04-24T01:04:36;22.27;;;5.43;;
28176;SDS011;15461;41.652;9.378;2023-04-24T01:07:03;16.30;;;5.47;;
28176;SDS011;15461;41.652;9.378;2023-04-24T01:09:35;13.13;;;4.72;;
28176;SDS011;15461;41.652;9.378;2023-04-24T01:12:05;20.13;;;6.47;;
28176;SDS011;15461;41.652;9.378;2023-04-24T01:14:32;22.30;;;5.07;;
28176;SDS011;15461;41.652;9.378;2023-04-24T01:16:58;17.83;;;5.40;;
28176;SDS011;15461;41.652;9.378;2023-04-24T01:19:26;17.92;;;5.00;;
28176;SDS011;15461;41.652;9.378;2023-04-24T01:21:53;21.75;;;5.70;;
28176;SDS011;15461;41.652;9.378;2023-04-24T01:24:23;18.58;;;5.30;;
28176;SDS011;15461;41.652;9.378;2023-04-24T01:26:49;15.85;;;5.18;;
28176;SDS011;15461;41.652;9.378;2023-04-24T01:29:17;21.77;;;5.50;;
28176;SDS011;15461;41.652;9.378;2023-04-24T01:31:44;15.88;;;5.15;;
28176;SDS011;15461;41.652;9.378;2023-04-24T01:34:10;19.75;;;5.35;;
28176;SDS011;15461;41.652;9.378;2023-04-24T01:36:36;17.05;;;5.20;;
28176;SDS011;15461;41.652;9.378;2023-04-24T01:39:02;18.80;;;5.50;;
28176;SDS011;15461;41.652;9.378;2023-04-24T01:41:29;21.95;;;5.38;;
28176;SDS011;15461;41.652;9.378;2023-04-24T01:43:56;16.27;;;5.50;;
28176;SDS011;15461;41.652;9.378;2023-04-24T01:46:23;14.85;;;5.15;;
28176;SDS011;15461;41.652;9.378;2023-04-24T01:48:50;15.40;;;5.65;;
28176;SDS011;15461;41.652;9.378;2023-04-24T01:51:18;17.17;;;5.80;;
28176;SDS011;15461;41.652;9.378;2023-04-24T01:53:44;18.02;;;5.38;;
28176;SDS011;15461;41.652;9.378;2023-04-24T01:56:10;20.65;;;5.70;;
28176;SDS011;15461;41.652;9.378;2023-04-24T01:58:37;16.00;;;5.57;;
28176;SDS011;15461;41.652;9.378;2023-04-24T02:01:03;19.95;;;5.53;;
28176;SDS011;15461;41.652;9.378;2023-04-24T02:03:31;14.00;;;5.25;;
28176;SDS011;15461;41.652;9.378;2023-04-24T02:05:57;21.23;;;5.70;;
28176;SDS011;15461;41.652;9.378;2023-04-24T02:08:23;16.52;;;6.03;;
28176;SDS011;15461;41.652;9.378;2023-04-24T02:10:49;18.77;;;5.45;;
28176;SDS011;15461;41.652;9.378;2023-04-24T02:13:15;15.88;;;5.35;;
28176;SDS011;15461;41.652;9.378;2023-04-24T02:15:41;17.27;;;5.30;;
28176;SDS011;15461;41.652;9.378;2023-04-24T02:18:07;13.15;;;5.07;;
28176;SDS011;15461;41.652;9.378;2023-04-24T02:20:33;19.13;;;5.57;;
28176;SDS011;15461;41.652;9.378;2023-04-24T02:23:00;15.98;;;4.82;;
28176;SDS011;15461;41.652;9.378;2023-04-24T02:25:26;14.20;;;4.80;;
28176;SDS011;15461;41.652;9.378;2023-04-24T02:27:54;13.57;;;4.38;;
28176;SDS011;15461;41.652;9.378;2023-04-24T02:30:20;18.13;;;5.28;;
28176;SDS011;15461;41.652;9.378;2023-04-24T02:32:46;21.48;;;5.05;;
28176;SDS011;15461;41.652;9.378;2023-04-24T02:35:12;13.07;;;4.00;;
28176;SDS011;15461;41.652;9.378;2023-04-24T02:37:38;10.82;;;4.22;;
28176;SDS011;15461;41.652;9.378;2023-04-24T02:40:04;8.23;;;3.53;;
28176;SDS011;15461;41.652;9.378;2023-04-24T02:42:31;13.82;;;3.95;;
28176;SDS011;15461;41.652;9.378;2023-04-24T02:44:56;12.93;;;4.07;;
28176;SDS011;15461;41.652;9.378;2023-04-24T02:47:22;11.65;;;3.80;;
28176;SDS011;15461;41.652;9.378;2023-04-24T02:49:48;12.43;;;3.92;;
28176;SDS011;15461;41.652;9.378;2023-04-24T02:52:14;11.13;;;3.50;;
28176;SDS011;15461;41.652;9.378;2023-04-24T02:54:40;16.15;;;3.60;;
28176;SDS011;15461;41.652;9.378;2023-04-24T02:57:06;12.50;;;3.55;;
28176;SDS011;15461;41.652;9.378;2023-04-24T02:59:32;10.02;;;3.85;;
28176;SDS011;15461;41.652;9.378;2023-04-24T03:01:58;13.50;;;4.30;;
28176;SDS011;15461;41.652;9.378;2023-04-24T03:04:24;9.57;;;3.75;;
28176;SDS011;15461;41.652;9.378;2023-04-24T03:06:51;13.00;;;3.75;;
28176;SDS011;15461;41.652;9.378;2023-04-24T03:09:20;15.00;;;4.00;;
28176;SDS011;15461;41.652;9.378;2023-04-24T03:11:47;8.43;;;2.95;;
28176;SDS011;15461;41.652;9.378;2023-04-24T03:14:14;8.20;;;3.17;;
28176;SDS011;15461;41.652;9.378;2023-04-24T03:16:41;8.27;;;2.90;;
28176;SDS011;15461;41.652;9.378;2023-04-24T03:19:06;11.90;;;3.70;;
28176;SDS011;15461;41.652;9.378;2023-04-24T03:21:38;11.95;;;3.90;;
28176;SDS011;15461;41.652;9.378;2023-04-24T03:24:07;13.80;;;3.15;;
28176;SDS011;15461;41.652;9.378;2023-04-24T03:26:35;10.20;;;3.35;;
28176;SDS011;15461;41.652;9.378;2023-04-24T03:29:14;11.00;;;3.28;;
28176;SDS011;15461;41.652;9.378;2023-04-24T03:31:41;11.43;;;3.10;;
28176;SDS011;15461;41.652;9.378;2023-04-24T03:34:07;8.35;;;3.05;;
28176;SDS011;15461;41.652;9.378;2023-04-24T03:36:34;11.63;;;3.22;;
28176;SDS011;15461;41.652;9.378;2023-04-24T03:39:00;10.43;;;3.03;;
28176;SDS011;15461;41.652;9.378;2023-04-24T03:41:30;14.90;;;2.97;;
28176;SDS011;15461;41.652;9.378;2023-04-24T03:44:22;8.52;;;3.28;;
28176;SDS011;15461;41.652;9.378;2023-04-24T03:46:49;10.95;;;3.35;;
28176;SDS011;15461;41.652;9.378;2023-04-24T03:49:16;11.23;;;3.67;;
28176;SDS011;15461;41.652;9.378;2023-04-24T03:51:45;11.25;;;3.65;;
28176;SDS011;15461;41.652;9.378;2023-04-24T03:54:22;10.30;;;3.40;;
28176;SDS011;15461;41.652;9.378;2023-04-24T03:56:50;10.02;;;3.53;;
28176;SDS011;15461;41.652;9.378;2023-04-24T03:59:16;13.05;;;3.25;;
28176;SDS011;15461;41.652;9.378;2023-04-24T04:01:46;10.23;;;3.00;;
28176;SDS011;15461;41.652;9.378;2023-04-24T04:04:16;9.10;;;2.88;;
28176;SDS011;15461;41.652;9.378;2023-04-24T04:06:43;8.40;;;2.67;;
28176;SDS011;15461;41.652;9.378;2023-04-24T04:09:09;6.35;;;2.45;;
28176;SDS011;15461;41.652;9.378;2023-04-24T04:11:36;9.48;;;3.08;;
28176;SDS011;15461;41.652;9.378;2023-04-24T04:14:02;8.02;;;2.78;;
28176;SDS011;15461;41.652;9.378;2023-04-24T04:16:29;9.27;;;3.13;;
28176;SDS011;15461;41.652;9.378;2023-04-24T04:19:00;9.30;;;3.30;;
28176;SDS011;15461;41.652;9.378;2023-04-24T04:21:27;8.63;;;3.00;;
28176;SDS011;15461;41.652;9.378;2023-04-24T04:24:03;10.77;;;3.33;;
28176;SDS011;15461;41.652;9.378;2023-04-24T04:26:36;8.73;;;2.70;;
28176;SDS011;15461;41.652;9.378;2023-04-24T04:29:11;10.23;;;3.10;;
28176;SDS011;15461;41.652;9.378;2023-04-24T04:31:41;10.90;;;2.55;;
28176;SDS011;15461;41.652;9.378;2023-04-24T04:34:11;14.10;;;3.00;;
28176;SDS011;15461;41.652;9.378;2023-04-24T04:36:38;7.72;;;2.90;;
28176;SDS011;15461;41.652;9.378;2023-04-24T04:39:22;5.50;;;2.28;;
28176;SDS011;15461;41.652;9.378;2023-04-24T04:41:55;8.05;;;2.53;;
28176;SDS011;15461;41.652;9.378;2023-04-24T04:44:25;9.98;;;2.80;;
28176;SDS011;15461;41.652;9.378;2023-04-24T04:46:53;7.13;;;2.40;;
28176;SDS011;15461;41.652;9.378;2023-04-24T04:49:26;7.55;;;2.70;;
28176;SDS011;15461;41.652;9.378;2023-04-24T04:51:54;10.32;;;2.47;;
28176;SDS011;15461;41.652;9.378;2023-04-24T04:54:22;10.85;;;2.80;;
28176;SDS011;15461;41.652;9.378;2023-04-24T04:56:49;9.20;;;2.80;;
28176;SDS011;15461;41.652;9.378;2023-04-24T04:59:15;9.63;;;2.45;;
28176;SDS011;15461;41.652;9.378;2023-04-24T05:01:42;9.45;;;3.22;;
28176;SDS011;15461;41.652;9.378;2023-04-24T05:04:10;6.63;;;2.33;;
28176;SDS011;15461;41.652;9.378;2023-04-24T05:06:36;5.35;;;2.30;;
28176;SDS011;15461;41.652;9.378;2023-04-24T05:09:04;5.97;;;2.22;;
28176;SDS011;15461;41.652;9.378;2023-04-24T05:11:40;6.97;;;2.30;;
28176;SDS011;15461;41.652;9.378;2023-04-24T05:14:06;8.18;;;2.10;;
28176;SDS011;15461;41.652;9.378;2023-04-24T05:16:37;4.68;;;2.00;;
28176;SDS011;15461;41.652;9.378;2023-04-24T05:19:04;7.75;;;2.22;;
28176;SDS011;15461;41.652;9.378;2023-04-24T05:21:35;5.30;;;2.00;;
28176;SDS011;15461;41.652;9.378;2023-04-24T05:24:01;5.95;;;2.08;;
28176;SDS011;15461;41.652;9.378;2023-04-24T05:27:00;7.25;;;2.17;;
28176;SDS011;15461;41.652;9.378;2023-04-24T05:29:42;6.93;;;1.98;;
28176;SDS011;15461;41.652;9.378;2023-04-24T05:32:09;6.50;;;1.90;;
28176;SDS011;15461;41.652;9.378;2023-04-24T05:34:35;6.88;;;1.80;;
28176;SDS011;15461;41.652;9.378;2023-04-24T05:37:01;9.80;;;2.13;;
28176;SDS011;15461;41.652;9.378;2023-04-24T05:39:28;7.00;;;2.00;;
28176;SDS011;15461;41.652;9.378;2023-04-24T05:41:54;10.20;;;2.22;;
28176;SDS011;15461;41.652;9.378;2023-04-24T05:44:23;6.97;;;1.80;;
28176;SDS011;15461;41.652;9.378;2023-04-24T05:47:36;5.05;;;1.55;;
28176;SDS011;15461;41.652;9.378;2023-04-24T05:50:04;13.07;;;2.13;;
28176;SDS011;15461;41.652;9.378;2023-04-24T05:52:32;3.35;;;1.40;;
28176;SDS011;15461;41.652;9.378;2023-04-24T05:55:02;10.55;;;2.00;;
28176;SDS011;15461;41.652;9.378;2023-04-24T05:57:36;7.57;;;1.60;;
28176;SDS011;15461;41.652;9.378;2023-04-24T06:00:03;9.30;;;1.42;;
28176;SDS011;15461;41.652;9.378;2023-04-24T06:02:38;6.78;;;1.15;;
28176;SDS011;15461;41.652;9.378;2023-04-24T06:05:07;11.30;;;1.23;;
28176;SDS011;15461;41.652;9.378;2023-04-24T06:07:34;2.70;;;1.17;;
28176;SDS011;15461;41.652;9.378;2023-04-24T06:10:04;8.48;;;1.10;;
28176;SDS011;15461;41.652;9.378;2023-04-24T06:12:37;2.63;;;0.90;;
28176;SDS011;15461;41.652;9.378;2023-04-24T06:15:08;4.57;;;1.00;;
28176;SDS011;15461;41.652;9.378;2023-04-24T06:18:10;1.55;;;0.70;;
28176;SDS011;15461;41.652;9.378;2023-04-24T06:20:37;8.38;;;1.10;;
28176;SDS011;15461;41.652;9.378;2023-04-24T06:23:03;5.65;;;1.00;;
28176;SDS011;15461;41.652;9.378;2023-04-24T06:25:31;8.13;;;1.30;;
28176;SDS011;15461;41.652;9.378;2023-04-24T06:27:57;3.70;;;0.90;;
28176;SDS011;15461;41.652;9.378;2023-04-24T06:30:23;2.95;;;1.00;;
28176;SDS011;15461;41.652;9.378;2023-04-24T06:32:50;4.03;;;0.90;;
28176;SDS011;15461;41.652;9.378;2023-04-24T06:35:16;4.85;;;0.95;;
28176;SDS011;15461;41.652;9.378;2023-04-24T06:37:42;2.17;;;0.82;;
28176;SDS011;15461;41.652;9.378;2023-04-24T06:40:09;47.13;;;1.95;;
28176;SDS011;15461;41.652;9.378;2023-04-24T06:42:35;5.68;;;0.90;;
28176;SDS011;15461;41.652;9.378;2023-04-24T06:45:03;8.68;;;1.05;;
28176;SDS011;15461;41.652;9.378;2023-04-24T06:47:30;6.55;;;0.60;;
28176;SDS011;15461;41.652;9.378;2023-04-24T06:49:56;4.25;;;1.02;;
28176;SDS011;15461;41.652;9.378;2023-04-24T06:52:24;5.32;;;0.70;;
28176;SDS011;15461;41.652;9.378;2023-04-24T06:54:50;6.85;;;1.23;;
28176;SDS011;15461;41.652;9.378;2023-04-24T06:57:16;2.40;;;0.90;;
28176;SDS011;15461;41.652;9.378;2023-04-24T06:59:43;5.63;;;0.82;;
28176;SDS011;15461;41.652;9.378;2023-04-24T07:02:09;4.95;;;1.02;;
28176;SDS011;15461;41.652;9.378;2023-04-24T07:04:35;7.50;;;1.13;;
28176;SDS011;15461;41.652;9.378;2023-04-24T07:07:01;5.13;;;1.10;;
28176;SDS011;15461;41.652;9.378;2023-04-24T07:09:27;7.15;;;1.23;;
28176;SDS011;15461;41.652;9.378;2023-04-24T07:11:53;5.43;;;1.23;;
28176;SDS011;15461;41.652;9.378;2023-04-24T07:14:22;4.40;;;1.30;;
28176;SDS011;15461;41.652;9.378;2023-04-24T07:16:48;7.07;;;1.23;;
28176;SDS011;15461;41.652;9.378;2023-04-24T07:19:14;5.22;;;1.30;;
28176;SDS011;15461;41.652;9.378;2023-04-24T07:21:40;4.88;;;1.15;;
28176;SDS011;15461;41.652;9.378;2023-04-24T07:24:07;9.00;;;1.58;;
28176;SDS011;15461;41.652;9.378;2023-04-24T07:26:36;3.95;;;0.93;;
28176;SDS011;15461;41.652;9.378;2023-04-24T07:29:03;9.85;;;1.90;;
28176;SDS011;15461;41.652;9.378;2023-04-24T07:31:29;7.03;;;1.45;;
28176;SDS011;15461;41.652;9.378;2023-04-24T07:33:56;8.98;;;1.33;;
28176;SDS011;15461;41.652;9.378;2023-04-24T07:36:23;5.05;;;1.38;;
28176;SDS011;15461;41.652;9.378;2023-04-24T07:38:51;8.32;;;1.75;;
28176;SDS011;15461;41.652;9.378;2023-04-24T07:41:17;7.22;;;1.35;;
28176;SDS011;15461;41.652;9.378;2023-04-24T07:43:52;9.93;;;1.80;;
28176;SDS011;15461;41.652;9.378;2023-04-24T07:46:19;8.68;;;1.10;;
28176;SDS011;15461;41.652;9.378;2023-04-24T07:48:45;5.15;;;1.20;;
28176;SDS011;15461;41.652;9.378;2023-04-24T07:51:14;5.88;;;1.30;;
28176;SDS011;15461;41.652;9.378;2023-04-24T07:53:41;7.32;;;1.30;;
28176;SDS011;15461;41.652;9.378;2023-04-24T07:56:07;8.57;;;1.58;;
28176;SDS011;15461;41.652;9.378;2023-04-24T07:58:34;10.48;;;1.58;;
28176;SDS011;15461;41.652;9.378;2023-04-24T08:01:00;9.40;;;1.38;;
28176;SDS011;15461;41.652;9.378;2023-04-24T08:03:26;5.10;;;1.10;;
28176;SDS011;15461;41.652;9.378;2023-04-24T08:05:52;6.72;;;1.45;;
28176;SDS011;15461;41.652;9.378;2023-04-24T08:08:19;5.05;;;1.27;;
28176;SDS011;15461;41.652;9.378;2023-04-24T08:10:46;6.45;;;1.08;;
28176;SDS011;15461;41.652;9.378;2023-04-24T08:13:13;5.47;;;1.20;;
28176;SDS011;15461;41.652;9.378;2023-04-24T08:15:38;6.25;;;1.25;;
28176;SDS011;15461;41.652;9.378;2023-04-24T08:18:04;3.20;;;1.08;;
28176;SDS011;15461;41.652;9.378;2023-04-24T08:20:30;5.45;;;1.10;;
28176;SDS011;15461;41.652;9.378;2023-04-24T08:22:56;5.40;;;0.95;;
28176;SDS011;15461;41.652;9.378;2023-04-24T08:25:22;6.38;;;1.35;;
28176;SDS011;15461;41.652;9.378;2023-04-24T08:27:50;5.80;;;1.33;;
28176;SDS011;15461;41.652;9.378;2023-04-24T08:30:16;6.60;;;1.02;;
28176;SDS011;15461;41.652;9.378;2023-04-24T08:32:42;5.15;;;1.20;;
28176;SDS011;15461;41.652;9.378;2023-04-24T08:35:08;4.55;;;1.10;;
28176;SDS011;15461;41.652;9.378;2023-04-24T08:37:34;6.25;;;1.10;;
28176;SDS011;15461;41.652;9.378;2023-04-24T08:40:01;14.00;;;1.55;;
28176;SDS011;15461;41.652;9.378;2023-04-24T08:42:43;4.88;;;1.08;;
28176;SDS011;15461;41.652;9.378;2023-04-24T08:45:10;2.60;;;0.98;;
28176;SDS011;15461;41.652;9.378;2023-04-24T08:47:38;4.10;;;1.08;;
28176;SDS011;15461;41.652;9.378;2023-04-24T08:50:05;3.55;;;1.02;;
28176;SDS011;15461;41.652;9.378;2023-04-24T08:52:32;3.75;;;1.20;;
28176;SDS011;15461;41.652;9.378;2023-04-24T08:55:02;10.35;;;1.58;;
28176;SDS011;15461;41.652;9.378;2023-04-24T08:57:29;4.50;;;1.20;;
28176;SDS011;15461;41.652;9.378;2023-04-24T08:59:56;4.00;;;0.85;;
28176;SDS011;15461;41.652;9.378;2023-04-24T09:02:23;4.03;;;1.35;;
28176;SDS011;15461;41.652;9.378;2023-04-24T09:04:50;3.65;;;1.05;;
28176;SDS011;15461;41.652;9.378;2023-04-24T09:07:17;8.65;;;2.40;;
28176;SDS011;15461;41.652;9.378;2023-04-24T09:09:45;14.07;;;2.88;;
28176;SDS011;15461;41.652;9.378;2023-04-24T09:12:11;3.90;;;1.13;;
28176;SDS011;15461;41.652;9.378;2023-04-24T09:14:38;4.68;;;0.95;;
28176;SDS011;15461;41.652;9.378;2023-04-24T09:17:07;3.72;;;0.90;;
28176;SDS011;15461;41.652;9.378;2023-04-24T09:19:33;4.38;;;1.05;;
28176;SDS011;15461;41.652;9.378;2023-04-24T09:21:59;7.20;;;1.25;;
28176;SDS011;15461;41.652;9.378;2023-04-24T09:24:30;2.40;;;0.90;;
28176;SDS011;15461;41.652;9.378;2023-04-24T09:26:57;8.93;;;1.40;;
28176;SDS011;15461;41.652;9.378;2023-04-24T09:29:24;5.88;;;1.10;;
28176;SDS011;15461;41.652;9.378;2023-04-24T09:31:50;7.82;;;1.70;;
28176;SDS011;15461;41.652;9.378;2023-04-24T09:34:20;12.63;;;1.83;;
28176;SDS011;15461;41.652;9.378;2023-04-24T09:36:49;9.25;;;1.80;;
28176;SDS011;15461;41.652;9.378;2023-04-24T09:39:15;6.35;;;1.25;;
28176;SDS011;15461;41.652;9.378;2023-04-24T09:41:46;4.72;;;1.10;;
28176;SDS011;15461;41.652;9.378;2023-04-24T09:44:17;8.50;;;1.67;;
28176;SDS011;15461;41.652;9.378;2023-04-24T09:46:49;5.55;;;1.40;;
28176;SDS011;15461;41.652;9.378;2023-04-24T09:49:16;3.80;;;1.23;;
28176;SDS011;15461;41.652;9.378;2023-04-24T09:51:47;7.53;;;1.25;;
28176;SDS011;15461;41.652;9.378;2023-04-24T09:54:17;6.22;;;1.42;;
28176;SDS011;15461;41.652;9.378;2023-04-24T09:56:46;5.25;;;1.20;;
28176;SDS011;15461;41.652;9.378;2023-04-24T09:59:16;5.88;;;1.20;;
28176;SDS011;15461;41.652;9.378;2023-04-24T10:01:43;10.20;;;1.85;;
28176;SDS011;15461;41.652;9.378;2023-04-24T10:04:19;7.10;;;1.50;;
28176;SDS011;15461;41.652;9.378;2023-04-24T10:06:50;5.80;;;1.15;;
28176;SDS011;15461;41.652;9.378;2023-04-24T10:09:18;5.07;;;1.10;;
28176;SDS011;15461;41.652;9.378;2023-04-24T10:11:46;7.75;;;1.48;;
28176;SDS011;15461;41.652;9.378;2023-04-24T10:14:14;5.68;;;1.05;;
28176;SDS011;15461;41.652;9.378;2023-04-24T10:16:42;8.20;;;1.63;;
28176;SDS011;15461;41.652;9.378;2023-04-24T10:19:09;7.65;;;1.70;;
28176;SDS011;15461;41.652;9.378;2023-04-24T10:21:36;8.32;;;1.67;;
28176;SDS011;15461;41.652;9.378;2023-04-24T10:24:10;10.02;;;1.83;;
28176;SDS011;15461;41.652;9.378;2023-04-24T10:26:38;5.75;;;1.27;;
28176;SDS011;15461;41.652;9.378;2023-04-24T10:29:05;3.92;;;1.10;;
28176;SDS011;15461;41.652;9.378;2023-04-24T10:31:36;9.25;;;1.23;;
28176;SDS011;15461;41.652;9.378;2023-04-24T10:34:04;5.03;;;1.10;;
28176;SDS011;15461;41.652;9.378;2023-04-24T10:36:31;4.85;;;1.25;;
28176;SDS011;15461;41.652;9.378;2023-04-24T10:39:00;6.70;;;1.10;;
28176;SDS011;15461;41.652;9.378;2023-04-24T10:41:30;5.88;;;1.25;;
28176;SDS011;15461;41.652;9.378;2023-04-24T10:44:06;4.53;;;1.58;;
28176;SDS011;15461;41.652;9.378;2023-04-24T10:49:08;2.08;;;0.95;;
28176;SDS011;15461;41.652;9.378;2023-04-24T10:54:27;3.92;;;0.70;;
28176;SDS011;15461;41.652;9.378;2023-04-24T10:59:46;4.35;;;1.20;;
28176;SDS011;15461;41.652;9.378;2023-04-24T11:02:16;4.07;;;1.30;;
28176;SDS011;15461;41.652;9.378;2023-04-24T11:04:42;10.95;;;1.27;;
28176;SDS011;15461;41.652;9.378;2023-04-24T11:07:10;9.55;;;1.63;;
28176;SDS011;15461;41.652;9.378;2023-04-24T11:09:36;6.40;;;1.30;;
28176;SDS011;15461;41.652;9.378;2023-04-24T11:12:09;8.27;;;1.70;;
28176;SDS011;15461;41.652;9.378;2023-04-24T11:17:29;7.38;;;2.00;;
28176;SDS011;15461;41.652;9.378;2023-04-24T11:20:03;9.23;;;1.50;;
28176;SDS011;15461;41.652;9.378;2023-04-24T11:22:32;8.07;;;1.42;;
28176;SDS011;15461;41.652;9.378;2023-04-24T11:25:03;7.50;;;1.55;;
28176;SDS011;15461;41.652;9.378;2023-04-24T11:27:31;11.68;;;1.95;;
28176;SDS011;15461;41.652;9.378;2023-04-24T11:30:04;7.97;;;1.85;;
28176;SDS011;15461;41.652;9.378;2023-04-24T11:37:50;9.45;;;1.65;;
28176;SDS011;15461;41.652;9.378;2023-04-24T11:40:18;6.47;;;1.50;;
28176;SDS011;15461;41.652;9.378;2023-04-24T11:42:49;9.68;;;1.63;;
28176;SDS011;15461;41.652;9.378;2023-04-24T11:45:17;5.97;;;1.40;;
28176;SDS011;15461;41.652;9.378;2023-04-24T11:47:43;8.13;;;2.00;;
28176;SDS011;15461;41.652;9.378;2023-04-24T11:50:12;11.57;;;1.88;;
28176;SDS011;15461;41.652;9.378;2023-04-24T11:52:42;7.40;;;1.77;;
28176;SDS011;15461;41.652;9.378;2023-04-24T11:57:42;6.18;;;1.60;;
28176;SDS011;15461;41.652;9.378;2023-04-24T12:00:23;10.32;;;1.45;;
28176;SDS011;15461;41.652;9.378;2023-04-24T12:03:03;10.05;;;1.98;;
28176;SDS011;15461;41.652;9.378;2023-04-24T12:08:03;7.60;;;1.92;;
28176;SDS011;15461;41.652;9.378;2023-04-24T12:10:29;10.75;;;2.22;;
28176;SDS011;15461;41.652;9.378;2023-04-24T12:12:56;9.52;;;2.03;;
28176;SDS011;15461;41.652;9.378;2023-04-24T12:15:23;8.23;;;1.80;;
28176;SDS011;15461;41.652;9.378;2023-04-24T12:17:50;10.43;;;2.15;;
28176;SDS011;15461;41.652;9.378;2023-04-24T12:20:20;15.18;;;2.67;;
28176;SDS011;15461;41.652;9.378;2023-04-24T12:22:51;13.05;;;2.25;;
28176;SDS011;15461;41.652;9.378;2023-04-24T12:25:27;9.88;;;1.90;;
28176;SDS011;15461;41.652;9.378;2023-04-24T12:27:55;10.65;;;1.77;;
28176;SDS011;15461;41.652;9.378;2023-04-24T12:30:32;11.13;;;2.20;;
28176;SDS011;15461;41.652;9.378;2023-04-24T12:33:00;10.68;;;1.95;;
28176;SDS011;15461;41.652;9.378;2023-04-24T12:35:28;8.90;;;1.90;;
28176;SDS011;15461;41.652;9.378;2023-04-24T12:38:06;10.77;;;2.10;;
28176;SDS011;15461;41.652;9.378;2023-04-24T12:40:38;12.52;;;2.15;;
28176;SDS011;15461;41.652;9.378;2023-04-24T12:43:17;7.40;;;1.92;;
28176;SDS011;15461;41.652;9.378;2023-04-24T12:45:45;8.77;;;1.85;;
28176;SDS011;15461;41.652;9.378;2023-04-24T12:48:12;14.13;;;2.17;;
28176;SDS011;15461;41.652;9.378;2023-04-24T12:50:41;10.02;;;1.92;;
28176;SDS011;15461;41.652;9.378;2023-04-24T12:53:08;13.38;;;2.70;;
28176;SDS011;15461;41.652;9.378;2023-04-24T12:55:34;8.30;;;1.80;;
28176;SDS011;15461;41.652;9.378;2023-04-24T12:58:00;12.60;;;2.30;;
28176;SDS011;15461;41.652;9.378;2023-04-24T13:00:28;17.20;;;2.15;;
28176;SDS011;15461;41.652;9.378;2023-04-24T13:02:54;8.30;;;2.00;;
28176;SDS011;15461;41.652;9.378;2023-04-24T13:05:20;7.75;;;1.60;;
28176;SDS011;15461;41.652;9.378;2023-04-24T13:07:46;9.80;;;1.65;;
28176;SDS011;15461;41.652;9.378;2023-04-24T13:10:12;9.73;;;1.90;;
28176;SDS011;15461;41.652;9.378;2023-04-24T13:12:38;4.95;;;1.70;;
28176;SDS011;15461;41.652;9.378;2023-04-24T13:15:05;7.40;;;1.80;;
28176;SDS011;15461;41.652;9.378;2023-04-24T13:17:32;16.10;;;2.58;;
28176;SDS011;15461;41.652;9.378;2023-04-24T13:19:58;6.35;;;1.52;;
28176;SDS011;15461;41.652;9.378;2023-04-24T13:22:24;7.20;;;1.65;;
28176;SDS011;15461;41.652;9.378;2023-04-24T13:24:50;8.85;;;1.98;;
28176;SDS011;15461;41.652;9.378;2023-04-24T13:27:16;9.43;;;1.85;;
28176;SDS011;15461;41.652;9.378;2023-04-24T13:29:43;8.40;;;1.80;;
28176;SDS011;15461;41.652;9.378;2023-04-24T13:32:09;10.75;;;1.65;;
28176;SDS011;15461;41.652;9.378;2023-04-24T13:34:35;10.40;;;1.90;;
28176;SDS011;15461;41.652;9.378;2023-04-24T13:37:01;11.70;;;1.80;;
28176;SDS011;15461;41.652;9.378;2023-04-24T13:39:28;6.45;;;1.73;;
28176;SDS011;15461;41.652;9.378;2023-04-24T13:41:55;7.82;;;1.65;;
28176;SDS011;15461;41.652;9.378;2023-04-24T13:44:21;8.43;;;1.70;;
28176;SDS011;15461;41.652;9.378;2023-04-24T13:46:52;11.48;;;1.92;;
28176;SDS011;15461;41.652;9.378;2023-04-24T13:49:19;8.10;;;1.52;;
28176;SDS011;15461;41.652;9.378;2023-04-24T13:51:46;5.88;;;1.60;;
28176;SDS011;15461;41.652;9.378;2023-04-24T13:54:12;7.82;;;1.60;;
28176;SDS011;15461;41.652;9.378;2023-04-24T13:56:39;8.52;;;1.63;;
28176;SDS011;15461;41.652;9.378;2023-04-24T13:59:05;7.53;;;1.83;;
28176;SDS011;15461;41.652;9.378;2023-04-24T14:01:31;7.82;;;1.70;;
28176;SDS011;15461;41.652;9.378;2023-04-24T14:03:57;11.98;;;1.63;;
28176;SDS011;15461;41.652;9.378;2023-04-24T14:06:23;7.53;;;1.95;;
28176;SDS011;15461;41.652;9.378;2023-04-24T14:08:49;9.90;;;1.70;;
28176;SDS011;15461;41.652;9.378;2023-04-24T14:11:16;8.48;;;1.98;;
28176;SDS011;15461;41.652;9.378;2023-04-24T14:13:43;8.40;;;1.95;;
28176;SDS011;15461;41.652;9.378;2023-04-24T14:16:09;9.18;;;2.00;;
28176;SDS011;15461;41.652;9.378;2023-04-24T14:18:35;9.90;;;1.50;;
28176;SDS011;15461;41.652;9.378;2023-04-24T14:21:02;10.90;;;1.85;;
28176;SDS011;15461;41.652;9.378;2023-04-24T14:23:28;14.77;;;2.20;;
28176;SDS011;15461;41.652;9.378;2023-04-24T14:25:54;9.10;;;1.73;;
28176;SDS011;15461;41.652;9.378;2023-04-24T14:28:20;10.25;;;1.70;;
28176;SDS011;15461;41.652;9.378;2023-04-24T14:30:47;13.05;;;1.98;;
28176;SDS011;15461;41.652;9.378;2023-04-24T14:33:13;12.88;;;1.80;;
28176;SDS011;15461;41.652;9.378;2023-04-24T14:35:40;14.50;;;2.47;;
28176;SDS011;15461;41.652;9.378;2023-04-24T14:38:08;11.68;;;1.65;;
28176;SDS011;15461;41.652;9.378;2023-04-24T14:40:34;6.68;;;2.28;;
28176;SDS011;15461;41.652;9.378;2023-04-24T14:43:00;12.20;;;2.10;;
28176;SDS011;15461;41.652;9.378;2023-04-24T14:45:26;7.63;;;1.80;;
28176;SDS011;15461;41.652;9.378;2023-04-24T14:47:52;12.50;;;1.83;;
28176;SDS011;15461;41.652;9.378;2023-04-24T14:50:19;13.48;;;1.90;;
28176;SDS011;15461;41.652;9.378;2023-04-24T14:52:45;7.95;;;1.30;;
28176;SDS011;15461;41.652;9.378;2023-04-24T14:55:11;10.18;;;1.70;;
28176;SDS011;15461;41.652;9.378;2023-04-24T14:57:37;10.70;;;1.50;;
28176;SDS011;15461;41.652;9.378;2023-04-24T15:00:04;13.27;;;1.90;;
28176;SDS011;15461;41.652;9.378;2023-04-24T15:02:33;11.13;;;2.20;;
28176;SDS011;15461;41.652;9.378;2023-04-24T15:05:02;12.00;;;1.90;;
28176;SDS011;15461;41.652;9.378;2023-04-24T15:07:32;21.83;;;2.50;;
28176;SDS011;15461;41.652;9.378;2023-04-24T15:09:58;11.15;;;1.83;;